sensor_id;sensor_type;location;lat;lon;timestamp;P1;durP1;ratioP1;P2;durP2;ratioP2
65463;SDS011;52063;45.110;9.870;2024-01-06T00:00:20;3.05;;;2.85;;
65463;SDS011;52063;45.110;9.870;2024-01-06T00:02:48;2.72;;;2.53;;
65463;SDS011;52063;45.110;9.870;2024-01-06T00:05:14;2.60;;;2.23;;
65463;SDS011;52063;45.110;9.870;2024-01-06T00:07:39;2.67;;;2.47;;
65463;SDS011;52063;45.110;9.870;2024-01-06T00:10:05;2.87;;;2.67;;
65463;SDS011;52063;45.110;9.870;2024-01-06T00:12:31;3.75;;;2.67;;
65463;SDS011;52063;45.110;9.870;2024-01-06T00:14:57;2.63;;;2.43;;
65463;SDS011;52063;45.110;9.870;2024-01-06T00:17:22;2.67;;;2.47;;
65463;SDS011;52063;45.110;9.870;2024-01-06T00:19:48;2.83;;;2.63;;
65463;SDS011;52063;45.110;9.870;2024-01-06T00:22:17;2.42;;;2.22;;
65463;SDS011;52063;45.110;9.870;2024-01-06T00:24:45;2.50;;;2.30;;
65463;SDS011;52063;45.110;9.870;2024-01-06T00:27:10;2.67;;;2.47;;
65463;SDS011;52063;45.110;9.870;2024-01-06T00:29:36;2.40;;;2.20;;
65463;SDS011;52063;45.110;9.870;2024-01-06T00:32:02;2.53;;;2.33;;
65463;SDS011;52063;45.110;9.870;2024-01-06T00:34:27;2.45;;;2.25;;
65463;SDS011;52063;45.110;9.870;2024-01-06T00:36:53;2.70;;;2.50;;
65463;SDS011;52063;45.110;9.870;2024-01-06T00:39:19;2.73;;;2.50;;
65463;SDS011;52063;45.110;9.870;2024-01-06T00:41:45;2.55;;;2.35;;
65463;SDS011;52063;45.110;9.870;2024-01-06T00:44:11;2.63;;;2.42;;
65463;SDS011;52063;45.110;9.870;2024-01-06T00:46:36;2.33;;;2.20;;
65463;SDS011;52063;45.110;9.870;2024-01-06T00:49:02;2.47;;;2.27;;
65463;SDS011;52063;45.110;9.870;2024-01-06T00:51:28;2.50;;;2.30;;
65463;SDS011;52063;45.110;9.870;2024-01-06T00:53:54;2.45;;;2.25;;
65463;SDS011;52063;45.110;9.870;2024-01-06T00:56:19;2.53;;;2.33;;
65463;SDS011;52063;45.110;9.870;2024-01-06T00:58:45;3.13;;;2.50;;
65463;SDS011;52063;45.110;9.870;2024-01-06T01:01:10;2.30;;;2.10;;
65463;SDS011;52063;45.110;9.870;2024-01-06T01:03:36;2.50;;;2.30;;
65463;SDS011;52063;45.110;9.870;2024-01-06T01:06:01;2.37;;;2.17;;
65463;SDS011;52063;45.110;9.870;2024-01-06T01:08:27;2.25;;;2.10;;
65463;SDS011;52063;45.110;9.870;2024-01-06T01:10:53;2.50;;;2.30;;
65463;SDS011;52063;45.110;9.870;2024-01-06T01:13:18;2.43;;;2.10;;
65463;SDS011;52063;45.110;9.870;2024-01-06T01:15:44;2.35;;;2.15;;
65463;SDS011;52063;45.110;9.870;2024-01-06T01:18:09;2.63;;;2.20;;
65463;SDS011;52063;45.110;9.870;2024-01-06T01:20:34;3.23;;;2.30;;
65463;SDS011;52063;45.110;9.870;2024-01-06T01:23:00;2.03;;;1.93;;
65463;SDS011;52063;45.110;9.870;2024-01-06T01:25:25;2.22;;;2.03;;
65463;SDS011;52063;45.110;9.870;2024-01-06T01:27:51;2.63;;;1.90;;
65463;SDS011;52063;45.110;9.870;2024-01-06T01:30:16;2.13;;;2.00;;
65463;SDS011;52063;45.110;9.870;2024-01-06T01:32:42;2.50;;;2.30;;
65463;SDS011;52063;45.110;9.870;2024-01-06T01:35:07;2.10;;;2.00;;
65463;SDS011;52063;45.110;9.870;2024-01-06T01:37:33;1.90;;;1.80;;
65463;SDS011;52063;45.110;9.870;2024-01-06T01:39:58;3.07;;;2.07;;
65463;SDS011;52063;45.110;9.870;2024-01-06T01:42:24;1.98;;;1.70;;
65463;SDS011;52063;45.110;9.870;2024-01-06T01:44:49;2.10;;;1.90;;
65463;SDS011;52063;45.110;9.870;2024-01-06T01:47:15;2.00;;;1.80;;
65463;SDS011;52063;45.110;9.870;2024-01-06T01:49:44;2.05;;;1.90;;
65463;SDS011;52063;45.110;9.870;2024-01-06T01:52:11;2.10;;;1.98;;
65463;SDS011;52063;45.110;9.870;2024-01-06T01:54:38;2.10;;;1.90;;
65463;SDS011;52063;45.110;9.870;2024-01-06T01:57:03;1.90;;;1.80;;
65463;SDS011;52063;45.110;9.870;2024-01-06T01:59:29;2.55;;;1.85;;
65463;SDS011;52063;45.110;9.870;2024-01-06T02:01:55;3.00;;;1.60;;
65463;SDS011;52063;45.110;9.870;2024-01-06T02:04:20;1.80;;;1.70;;
65463;SDS011;52063;45.110;9.870;2024-01-06T02:06:46;2.10;;;1.90;;
65463;SDS011;52063;45.110;9.870;2024-01-06T02:09:11;1.95;;;1.85;;
65463;SDS011;52063;45.110;9.870;2024-01-06T02:11:37;2.00;;;1.90;;
65463;SDS011;52063;45.110;9.870;2024-01-06T02:14:03;1.90;;;1.80;;
65463;SDS011;52063;45.110;9.870;2024-01-06T02:16:28;2.67;;;2.03;;
65463;SDS011;52063;45.110;9.870;2024-01-06T02:18:54;1.80;;;1.70;;
65463;SDS011;52063;45.110;9.870;2024-01-06T02:21:21;1.88;;;1.73;;
65463;SDS011;52063;45.110;9.870;2024-01-06T02:23:47;1.92;;;1.80;;
65463;SDS011;52063;45.110;9.870;2024-01-06T02:26:13;1.80;;;1.70;;
65463;SDS011;52063;45.110;9.870;2024-01-06T02:28:40;1.80;;;1.70;;
65463;SDS011;52063;45.110;9.870;2024-01-06T02:31:06;1.90;;;1.70;;
65463;SDS011;52063;45.110;9.870;2024-01-06T02:33:31;1.75;;;1.60;;
65463;SDS011;52063;45.110;9.870;2024-01-06T02:35:57;1.77;;;1.67;;
65463;SDS011;52063;45.110;9.870;2024-01-06T02:38:22;1.80;;;1.70;;
65463;SDS011;52063;45.110;9.870;2024-01-06T02:40:48;1.77;;;1.67;;
65463;SDS011;52063;45.110;9.870;2024-01-06T02:43:13;1.80;;;1.70;;
65463;SDS011;52063;45.110;9.870;2024-01-06T02:45:39;1.60;;;1.50;;
65463;SDS011;52063;45.110;9.870;2024-01-06T02:48:04;1.80;;;1.70;;
65463;SDS011;52063;45.110;9.870;2024-01-06T02:50:30;1.67;;;1.57;;
65463;SDS011;52063;45.110;9.870;2024-01-06T02:52:55;1.90;;;1.80;;
65463;SDS011;52063;45.110;9.870;2024-01-06T02:55:21;1.65;;;1.55;;
65463;SDS011;52063;45.110;9.870;2024-01-06T02:57:46;1.70;;;1.60;;
65463;SDS011;52063;45.110;9.870;2024-01-06T03:00:12;1.80;;;1.70;;
65463;SDS011;52063;45.110;9.870;2024-01-06T03:02:38;1.88;;;1.77;;
65463;SDS011;52063;45.110;9.870;2024-01-06T03:05:07;1.52;;;1.42;;
65463;SDS011;52063;45.110;9.870;2024-01-06T03:07:33;1.83;;;1.73;;
65463;SDS011;52063;45.110;9.870;2024-01-06T03:09:58;1.70;;;1.60;;
65463;SDS011;52063;45.110;9.870;2024-01-06T03:12:24;1.97;;;1.87;;
65463;SDS011;52063;45.110;9.870;2024-01-06T03:14:49;1.80;;;1.70;;
65463;SDS011;52063;45.110;9.870;2024-01-06T03:17:16;1.70;;;1.60;;
65463;SDS011;52063;45.110;9.870;2024-01-06T03:19:41;1.70;;;1.60;;
65463;SDS011;52063;45.110;9.870;2024-01-06T03:22:07;1.40;;;1.30;;
65463;SDS011;52063;45.110;9.870;2024-01-06T03:24:32;1.60;;;1.50;;
65463;SDS011;52063;45.110;9.870;2024-01-06T03:26:58;1.63;;;1.33;;
65463;SDS011;52063;45.110;9.870;2024-01-06T03:29:23;1.90;;;1.80;;
65463;SDS011;52063;45.110;9.870;2024-01-06T03:31:49;1.40;;;1.30;;
65463;SDS011;52063;45.110;9.870;2024-01-06T03:34:14;1.77;;;1.67;;
65463;SDS011;52063;45.110;9.870;2024-01-06T03:36:40;1.70;;;1.60;;
65463;SDS011;52063;45.110;9.870;2024-01-06T03:39:06;1.63;;;1.52;;
65463;SDS011;52063;45.110;9.870;2024-01-06T03:41:32;1.50;;;1.20;;
65463;SDS011;52063;45.110;9.870;2024-01-06T03:43:58;1.70;;;1.60;;
65463;SDS011;52063;45.110;9.870;2024-01-06T03:46:23;1.50;;;1.40;;
65463;SDS011;52063;45.110;9.870;2024-01-06T03:48:49;1.47;;;1.37;;
65463;SDS011;52063;45.110;9.870;2024-01-06T03:51:15;2.70;;;1.37;;
65463;SDS011;52063;45.110;9.870;2024-01-06T03:53:40;1.70;;;1.33;;
65463;SDS011;52063;45.110;9.870;2024-01-06T03:56:06;1.30;;;1.20;;
65463;SDS011;52063;45.110;9.870;2024-01-06T03:58:31;1.50;;;1.40;;
65463;SDS011;52063;45.110;9.870;2024-01-06T04:00:57;1.42;;;1.33;;
65463;SDS011;52063;45.110;9.870;2024-01-06T04:03:23;1.50;;;1.40;;
65463;SDS011;52063;45.110;9.870;2024-01-06T04:05:48;1.48;;;1.33;;
65463;SDS011;52063;45.110;9.870;2024-01-06T04:08:14;2.70;;;1.60;;
65463;SDS011;52063;45.110;9.870;2024-01-06T04:10:39;1.60;;;1.50;;
65463;SDS011;52063;45.110;9.870;2024-01-06T04:13:06;1.33;;;1.23;;
65463;SDS011;52063;45.110;9.870;2024-01-06T04:15:32;1.70;;;1.60;;
65463;SDS011;52063;45.110;9.870;2024-01-06T04:18:01;1.63;;;1.25;;
65463;SDS011;52063;45.110;9.870;2024-01-06T04:20:28;1.70;;;1.60;;
65463;SDS011;52063;45.110;9.870;2024-01-06T04:22:53;1.50;;;1.40;;
65463;SDS011;52063;45.110;9.870;2024-01-06T04:25:19;1.30;;;1.20;;
65463;SDS011;52063;45.110;9.870;2024-01-06T04:27:44;1.57;;;1.47;;
65463;SDS011;52063;45.110;9.870;2024-01-06T04:30:12;1.40;;;1.30;;
65463;SDS011;52063;45.110;9.870;2024-01-06T04:32:38;1.63;;;1.53;;
65463;SDS011;52063;45.110;9.870;2024-01-06T04:35:04;1.60;;;1.50;;
65463;SDS011;52063;45.110;9.870;2024-01-06T04:37:30;1.33;;;1.23;;
65463;SDS011;52063;45.110;9.870;2024-01-06T04:39:55;1.80;;;1.40;;
65463;SDS011;52063;45.110;9.870;2024-01-06T04:42:21;1.60;;;1.50;;
65463;SDS011;52063;45.110;9.870;2024-01-06T04:44:47;1.45;;;1.35;;
65463;SDS011;52063;45.110;9.870;2024-01-06T04:47:14;2.70;;;1.37;;
65463;SDS011;52063;45.110;9.870;2024-01-06T04:49:39;1.40;;;1.30;;
65463;SDS011;52063;45.110;9.870;2024-01-06T04:52:05;1.50;;;1.40;;
65463;SDS011;52063;45.110;9.870;2024-01-06T04:54:30;1.80;;;1.70;;
65463;SDS011;52063;45.110;9.870;2024-01-06T04:56:56;1.80;;;1.08;;
65463;SDS011;52063;45.110;9.870;2024-01-06T04:59:21;1.50;;;1.40;;
65463;SDS011;52063;45.110;9.870;2024-01-06T05:01:47;1.50;;;1.40;;
65463;SDS011;52063;45.110;9.870;2024-01-06T05:04:12;2.25;;;1.13;;
65463;SDS011;52063;45.110;9.870;2024-01-06T05:06:38;1.47;;;1.37;;
65463;SDS011;52063;45.110;9.870;2024-01-06T05:09:03;7.40;;;1.43;;
65463;SDS011;52063;45.110;9.870;2024-01-06T05:11:29;1.30;;;1.10;;
65463;SDS011;52063;45.110;9.870;2024-01-06T05:13:54;1.57;;;1.47;;
65463;SDS011;52063;45.110;9.870;2024-01-06T05:16:20;2.27;;;1.20;;
65463;SDS011;52063;45.110;9.870;2024-01-06T05:18:46;1.75;;;1.23;;
65463;SDS011;52063;45.110;9.870;2024-01-06T05:21:11;1.60;;;1.30;;
65463;SDS011;52063;45.110;9.870;2024-01-06T05:23:37;1.52;;;1.35;;
65463;SDS011;52063;45.110;9.870;2024-01-06T05:26:02;1.33;;;1.07;;
65463;SDS011;52063;45.110;9.870;2024-01-06T05:28:28;1.57;;;1.47;;
65463;SDS011;52063;45.110;9.870;2024-01-06T05:30:53;1.50;;;1.40;;
65463;SDS011;52063;45.110;9.870;2024-01-06T05:33:19;1.30;;;1.20;;
65463;SDS011;52063;45.110;9.870;2024-01-06T05:35:44;1.30;;;1.20;;
65463;SDS011;52063;45.110;9.870;2024-01-06T05:38:10;1.38;;;1.27;;
65463;SDS011;52063;45.110;9.870;2024-01-06T05:40:35;1.23;;;1.13;;
65463;SDS011;52063;45.110;9.870;2024-01-06T05:43:00;1.50;;;1.40;;
65463;SDS011;52063;45.110;9.870;2024-01-06T05:45:26;1.30;;;1.20;;
65463;SDS011;52063;45.110;9.870;2024-01-06T05:47:51;1.35;;;1.25;;
65463;SDS011;52063;45.110;9.870;2024-01-06T05:50:17;1.40;;;1.30;;
65463;SDS011;52063;45.110;9.870;2024-01-06T05:52:42;1.67;;;1.47;;
65463;SDS011;52063;45.110;9.870;2024-01-06T05:55:08;1.15;;;1.05;;
65463;SDS011;52063;45.110;9.870;2024-01-06T05:57:36;1.30;;;1.20;;
65463;SDS011;52063;45.110;9.870;2024-01-06T06:00:02;1.23;;;1.10;;
65463;SDS011;52063;45.110;9.870;2024-01-06T06:02:37;1.40;;;1.30;;
65463;SDS011;52063;45.110;9.870;2024-01-06T06:05:04;1.00;;;0.90;;
65463;SDS011;52063;45.110;9.870;2024-01-06T06:07:29;1.92;;;1.20;;
65463;SDS011;52063;45.110;9.870;2024-01-06T06:09:55;1.33;;;1.23;;
65463;SDS011;52063;45.110;9.870;2024-01-06T06:12:20;2.08;;;1.30;;
65463;SDS011;52063;45.110;9.870;2024-01-06T06:14:46;1.50;;;1.40;;
65463;SDS011;52063;45.110;9.870;2024-01-06T06:17:11;1.60;;;1.30;;
65463;SDS011;52063;45.110;9.870;2024-01-06T06:19:37;1.10;;;1.00;;
65463;SDS011;52063;45.110;9.870;2024-01-06T06:22:03;1.60;;;1.50;;
65463;SDS011;52063;45.110;9.870;2024-01-06T06:24:29;1.38;;;1.27;;
65463;SDS011;52063;45.110;9.870;2024-01-06T06:26:54;1.30;;;1.20;;
65463;SDS011;52063;45.110;9.870;2024-01-06T06:29:20;1.60;;;1.50;;
65463;SDS011;52063;45.110;9.870;2024-01-06T06:31:46;3.40;;;1.30;;
65463;SDS011;52063;45.110;9.870;2024-01-06T06:34:12;3.65;;;1.30;;
65463;SDS011;52063;45.110;9.870;2024-01-06T06:36:37;1.27;;;1.13;;
65463;SDS011;52063;45.110;9.870;2024-01-06T06:39:03;1.50;;;1.40;;
65463;SDS011;52063;45.110;9.870;2024-01-06T06:41:29;1.30;;;1.10;;
65463;SDS011;52063;45.110;9.870;2024-01-06T06:43:57;1.43;;;1.30;;
65463;SDS011;52063;45.110;9.870;2024-01-06T06:46:23;1.27;;;1.10;;
65463;SDS011;52063;45.110;9.870;2024-01-06T06:48:48;1.75;;;1.55;;
65463;SDS011;52063;45.110;9.870;2024-01-06T06:51:15;1.70;;;1.40;;
65463;SDS011;52063;45.110;9.870;2024-01-06T06:53:41;1.57;;;1.47;;
65463;SDS011;52063;45.110;9.870;2024-01-06T06:56:06;1.50;;;1.40;;
65463;SDS011;52063;45.110;9.870;2024-01-06T06:58:32;1.65;;;1.55;;
65463;SDS011;52063;45.110;9.870;2024-01-06T07:00:58;1.77;;;1.67;;
65463;SDS011;52063;45.110;9.870;2024-01-06T07:03:24;1.87;;;1.77;;
65463;SDS011;52063;45.110;9.870;2024-01-06T07:05:49;2.30;;;1.70;;
65463;SDS011;52063;45.110;9.870;2024-01-06T07:08:15;1.90;;;1.70;;
65463;SDS011;52063;45.110;9.870;2024-01-06T07:10:40;2.07;;;1.87;;
65463;SDS011;52063;45.110;9.870;2024-01-06T07:13:06;2.35;;;1.80;;
65463;SDS011;52063;45.110;9.870;2024-01-06T07:15:32;2.33;;;2.13;;
65463;SDS011;52063;45.110;9.870;2024-01-06T07:17:57;2.00;;;1.80;;
65463;SDS011;52063;45.110;9.870;2024-01-06T07:20:23;1.73;;;1.60;;
65463;SDS011;52063;45.110;9.870;2024-01-06T07:22:49;1.60;;;1.50;;
65463;SDS011;52063;45.110;9.870;2024-01-06T07:25:14;2.50;;;1.73;;
65463;SDS011;52063;45.110;9.870;2024-01-06T07:27:40;2.27;;;1.87;;
65463;SDS011;52063;45.110;9.870;2024-01-06T07:30:05;1.85;;;1.75;;
65463;SDS011;52063;45.110;9.870;2024-01-06T07:32:33;1.80;;;1.70;;
65463;SDS011;52063;45.110;9.870;2024-01-06T07:34:58;1.52;;;1.40;;
65463;SDS011;52063;45.110;9.870;2024-01-06T07:37:24;1.50;;;1.40;;
65463;SDS011;52063;45.110;9.870;2024-01-06T07:39:50;2.22;;;1.42;;
65463;SDS011;52063;45.110;9.870;2024-01-06T07:42:16;1.80;;;1.70;;
65463;SDS011;52063;45.110;9.870;2024-01-06T07:44:42;1.73;;;1.63;;
65463;SDS011;52063;45.110;9.870;2024-01-06T07:47:07;1.87;;;1.70;;
65463;SDS011;52063;45.110;9.870;2024-01-06T07:49:33;1.80;;;1.70;;
65463;SDS011;52063;45.110;9.870;2024-01-06T07:51:58;1.70;;;1.60;;
65463;SDS011;52063;45.110;9.870;2024-01-06T07:54:25;1.60;;;1.50;;
65463;SDS011;52063;45.110;9.870;2024-01-06T07:56:50;1.70;;;1.60;;
65463;SDS011;52063;45.110;9.870;2024-01-06T07:59:16;1.83;;;1.73;;
65463;SDS011;52063;45.110;9.870;2024-01-06T08:01:41;1.80;;;1.70;;
65463;SDS011;52063;45.110;9.870;2024-01-06T08:04:08;1.90;;;1.80;;
65463;SDS011;52063;45.110;9.870;2024-01-06T08:06:34;2.10;;;1.50;;
65463;SDS011;52063;45.110;9.870;2024-01-06T08:08:59;1.80;;;1.70;;
65463;SDS011;52063;45.110;9.870;2024-01-06T08:11:25;2.55;;;2.35;;
65463;SDS011;52063;45.110;9.870;2024-01-06T08:13:50;3.20;;;1.80;;
65463;SDS011;52063;45.110;9.870;2024-01-06T08:16:16;1.98;;;1.88;;
65463;SDS011;52063;45.110;9.870;2024-01-06T08:18:43;1.63;;;1.53;;
65463;SDS011;52063;45.110;9.870;2024-01-06T08:21:08;1.60;;;1.50;;
65463;SDS011;52063;45.110;9.870;2024-01-06T08:23:34;1.70;;;1.60;;
65463;SDS011;52063;45.110;9.870;2024-01-06T08:25:59;3.38;;;3.17;;
65463;SDS011;52063;45.110;9.870;2024-01-06T08:28:26;2.50;;;2.30;;
65463;SDS011;52063;45.110;9.870;2024-01-06T08:30:51;2.60;;;2.40;;
65463;SDS011;52063;45.110;9.870;2024-01-06T08:33:17;3.20;;;2.90;;
65463;SDS011;52063;45.110;9.870;2024-01-06T08:35:43;2.63;;;2.42;;
65463;SDS011;52063;45.110;9.870;2024-01-06T08:38:08;2.92;;;2.72;;
65463;SDS011;52063;45.110;9.870;2024-01-06T08:40:34;3.13;;;2.83;;
65463;SDS011;52063;45.110;9.870;2024-01-06T08:43:00;2.70;;;2.50;;
65463;SDS011;52063;45.110;9.870;2024-01-06T08:45:26;2.90;;;2.70;;
65463;SDS011;52063;45.110;9.870;2024-01-06T08:47:51;3.30;;;2.87;;
65463;SDS011;52063;45.110;9.870;2024-01-06T08:50:17;3.00;;;2.80;;
65463;SDS011;52063;45.110;9.870;2024-01-06T08:52:42;4.60;;;3.10;;
65463;SDS011;52063;45.110;9.870;2024-01-06T08:55:08;3.03;;;2.83;;
65463;SDS011;52063;45.110;9.870;2024-01-06T08:57:33;3.33;;;3.10;;
65463;SDS011;52063;45.110;9.870;2024-01-06T08:59:59;3.50;;;3.22;;
65463;SDS011;52063;45.110;9.870;2024-01-06T09:02:24;3.10;;;2.90;;
65463;SDS011;52063;45.110;9.870;2024-01-06T09:04:50;3.00;;;2.80;;
65463;SDS011;52063;45.110;9.870;2024-01-06T09:07:15;3.00;;;2.80;;
65463;SDS011;52063;45.110;9.870;2024-01-06T09:09:42;3.13;;;2.92;;
65463;SDS011;52063;45.110;9.870;2024-01-06T09:12:08;3.50;;;3.30;;
65463;SDS011;52063;45.110;9.870;2024-01-06T09:14:34;4.38;;;3.67;;
65463;SDS011;52063;45.110;9.870;2024-01-06T09:16:59;3.20;;;3.00;;
65463;SDS011;52063;45.110;9.870;2024-01-06T09:19:25;4.50;;;2.93;;
65463;SDS011;52063;45.110;9.870;2024-01-06T09:21:53;3.03;;;2.83;;
65463;SDS011;52063;45.110;9.870;2024-01-06T09:24:20;3.90;;;3.60;;
65463;SDS011;52063;45.110;9.870;2024-01-06T09:26:46;3.28;;;2.80;;
65463;SDS011;52063;45.110;9.870;2024-01-06T09:29:12;3.00;;;2.80;;
65463;SDS011;52063;45.110;9.870;2024-01-06T09:31:37;3.53;;;2.78;;
65463;SDS011;52063;45.110;9.870;2024-01-06T09:34:03;2.90;;;2.70;;
65463;SDS011;52063;45.110;9.870;2024-01-06T09:36:30;2.60;;;2.40;;
65463;SDS011;52063;45.110;9.870;2024-01-06T09:38:56;2.80;;;2.60;;
65463;SDS011;52063;45.110;9.870;2024-01-06T09:41:21;2.70;;;2.50;;
65463;SDS011;52063;45.110;9.870;2024-01-06T09:43:47;3.05;;;2.60;;
65463;SDS011;52063;45.110;9.870;2024-01-06T09:46:18;2.90;;;2.70;;
65463;SDS011;52063;45.110;9.870;2024-01-06T09:48:50;3.28;;;2.97;;
65463;SDS011;52063;45.110;9.870;2024-01-06T09:51:18;2.95;;;2.75;;
65463;SDS011;52063;45.110;9.870;2024-01-06T09:56:23;2.97;;;2.50;;
65463;SDS011;52063;45.110;9.870;2024-01-06T09:58:50;2.60;;;2.40;;
65463;SDS011;52063;45.110;9.870;2024-01-06T10:01:15;2.40;;;2.20;;
65463;SDS011;52063;45.110;9.870;2024-01-06T10:03:42;2.47;;;2.35;;
65463;SDS011;52063;45.110;9.870;2024-01-06T10:06:08;2.50;;;2.30;;
65463;SDS011;52063;45.110;9.870;2024-01-06T10:08:35;2.65;;;2.45;;
65463;SDS011;52063;45.110;9.870;2024-01-06T10:11:00;2.57;;;2.37;;
65463;SDS011;52063;45.110;9.870;2024-01-06T10:13:26;2.53;;;2.33;;
65463;SDS011;52063;45.110;9.870;2024-01-06T10:15:54;2.70;;;2.50;;
65463;SDS011;52063;45.110;9.870;2024-01-06T10:18:20;2.90;;;2.70;;
65463;SDS011;52063;45.110;9.870;2024-01-06T10:20:47;2.90;;;2.70;;
65463;SDS011;52063;45.110;9.870;2024-01-06T10:23:12;2.80;;;2.50;;
65463;SDS011;52063;45.110;9.870;2024-01-06T10:25:38;2.60;;;2.40;;
65463;SDS011;52063;45.110;9.870;2024-01-06T10:28:05;2.90;;;2.35;;
65463;SDS011;52063;45.110;9.870;2024-01-06T10:30:31;2.70;;;2.50;;
65463;SDS011;52063;45.110;9.870;2024-01-06T10:32:57;3.10;;;2.90;;
65463;SDS011;52063;45.110;9.870;2024-01-06T10:35:26;3.00;;;2.63;;
65463;SDS011;52063;45.110;9.870;2024-01-06T10:37:53;3.83;;;3.08;;
65463;SDS011;52063;45.110;9.870;2024-01-06T10:40:19;3.23;;;2.90;;
65463;SDS011;52063;45.110;9.870;2024-01-06T10:42:45;3.35;;;2.85;;
65463;SDS011;52063;45.110;9.870;2024-01-06T10:45:12;3.50;;;2.73;;
65463;SDS011;52063;45.110;9.870;2024-01-06T10:47:40;3.40;;;2.67;;
65463;SDS011;52063;45.110;9.870;2024-01-06T10:50:06;3.30;;;3.00;;
65463;SDS011;52063;45.110;9.870;2024-01-06T10:52:35;3.63;;;3.25;;
65463;SDS011;52063;45.110;9.870;2024-01-06T10:55:02;4.15;;;3.50;;
65463;SDS011;52063;45.110;9.870;2024-01-06T10:57:29;2.97;;;2.70;;
65463;SDS011;52063;45.110;9.870;2024-01-06T10:59:59;3.20;;;2.83;;
65463;SDS011;52063;45.110;9.870;2024-01-06T11:02:25;3.97;;;3.10;;
65463;SDS011;52063;45.110;9.870;2024-01-06T11:04:51;4.10;;;3.13;;
65463;SDS011;52063;45.110;9.870;2024-01-06T11:07:17;3.30;;;3.00;;
65463;SDS011;52063;45.110;9.870;2024-01-06T11:09:47;4.25;;;2.72;;
65463;SDS011;52063;45.110;9.870;2024-01-06T11:12:25;3.00;;;2.80;;
65463;SDS011;52063;45.110;9.870;2024-01-06T11:14:51;3.40;;;3.10;;
65463;SDS011;52063;45.110;9.870;2024-01-06T11:20:19;3.17;;;2.90;;
65463;SDS011;52063;45.110;9.870;2024-01-06T11:22:46;2.60;;;2.40;;
65463;SDS011;52063;45.110;9.870;2024-01-06T11:25:16;2.83;;;2.53;;
65463;SDS011;52063;45.110;9.870;2024-01-06T11:27:44;2.70;;;2.50;;
65463;SDS011;52063;45.110;9.870;2024-01-06T11:30:19;2.75;;;2.55;;
65463;SDS011;52063;45.110;9.870;2024-01-06T11:32:46;2.60;;;2.40;;
65463;SDS011;52063;45.110;9.870;2024-01-06T11:35:12;2.75;;;2.53;;
65463;SDS011;52063;45.110;9.870;2024-01-06T11:42:46;3.83;;;3.08;;
65463;SDS011;52063;45.110;9.870;2024-01-06T11:45:13;2.40;;;2.20;;
65463;SDS011;52063;45.110;9.870;2024-01-06T11:47:39;2.92;;;2.63;;
65463;SDS011;52063;45.110;9.870;2024-01-06T11:50:06;3.17;;;2.88;;
65463;SDS011;52063;45.110;9.870;2024-01-06T11:52:32;2.42;;;2.22;;
65463;SDS011;52063;45.110;9.870;2024-01-06T11:54:58;2.60;;;2.40;;
65463;SDS011;52063;45.110;9.870;2024-01-06T11:57:27;2.50;;;2.30;;
65463;SDS011;52063;45.110;9.870;2024-01-06T11:59:53;2.80;;;2.22;;
65463;SDS011;52063;45.110;9.870;2024-01-06T12:02:19;2.60;;;2.40;;
65463;SDS011;52063;45.110;9.870;2024-01-06T12:04:53;2.40;;;2.20;;
65463;SDS011;52063;45.110;9.870;2024-01-06T12:07:19;3.00;;;2.30;;
65463;SDS011;52063;45.110;9.870;2024-01-06T12:09:50;2.70;;;2.50;;
65463;SDS011;52063;45.110;9.870;2024-01-06T12:12:16;2.70;;;2.50;;
65463;SDS011;52063;45.110;9.870;2024-01-06T12:14:43;2.50;;;2.30;;
65463;SDS011;52063;45.110;9.870;2024-01-06T12:17:09;2.37;;;2.07;;
65463;SDS011;52063;45.110;9.870;2024-01-06T12:19:35;2.50;;;2.30;;
65463;SDS011;52063;45.110;9.870;2024-01-06T12:22:01;2.17;;;1.97;;
65463;SDS011;52063;45.110;9.870;2024-01-06T12:24:27;2.42;;;2.22;;
65463;SDS011;52063;45.110;9.870;2024-01-06T12:26:54;2.47;;;2.28;;
65463;SDS011;52063;45.110;9.870;2024-01-06T12:29:20;2.25;;;2.05;;
65463;SDS011;52063;45.110;9.870;2024-01-06T12:31:46;2.60;;;2.40;;
65463;SDS011;52063;45.110;9.870;2024-01-06T12:34:11;2.80;;;2.60;;
65463;SDS011;52063;45.110;9.870;2024-01-06T12:36:38;3.37;;;2.70;;
65463;SDS011;52063;45.110;9.870;2024-01-06T12:39:04;2.92;;;2.67;;
65463;SDS011;52063;45.110;9.870;2024-01-06T12:41:29;4.70;;;3.25;;
65463;SDS011;52063;45.110;9.870;2024-01-06T12:43:58;6.10;;;3.95;;
65463;SDS011;52063;45.110;9.870;2024-01-06T12:46:25;4.83;;;3.90;;
65463;SDS011;52063;45.110;9.870;2024-01-06T12:48:51;4.72;;;3.90;;
65463;SDS011;52063;45.110;9.870;2024-01-06T12:51:16;4.53;;;3.80;;
65463;SDS011;52063;45.110;9.870;2024-01-06T12:53:42;4.45;;;3.35;;
65463;SDS011;52063;45.110;9.870;2024-01-06T12:56:07;4.30;;;3.43;;
65463;SDS011;52063;45.110;9.870;2024-01-06T12:58:33;3.28;;;2.97;;
65463;SDS011;52063;45.110;9.870;2024-01-06T13:00:59;3.37;;;3.07;;
65463;SDS011;52063;45.110;9.870;2024-01-06T13:03:24;4.33;;;2.90;;
65463;SDS011;52063;45.110;9.870;2024-01-06T13:05:50;2.97;;;2.63;;
65463;SDS011;52063;45.110;9.870;2024-01-06T13:08:15;3.40;;;3.10;;
65463;SDS011;52063;45.110;9.870;2024-01-06T13:10:41;2.73;;;2.53;;
65463;SDS011;52063;45.110;9.870;2024-01-06T13:13:06;3.17;;;2.67;;
65463;SDS011;52063;45.110;9.870;2024-01-06T13:15:32;2.90;;;2.60;;
65463;SDS011;52063;45.110;9.870;2024-01-06T13:17:57;2.90;;;2.70;;
65463;SDS011;52063;45.110;9.870;2024-01-06T13:20:23;2.70;;;2.50;;
65463;SDS011;52063;45.110;9.870;2024-01-06T13:22:48;2.70;;;2.50;;
65463;SDS011;52063;45.110;9.870;2024-01-06T13:25:14;2.70;;;2.50;;
65463;SDS011;52063;45.110;9.870;2024-01-06T13:27:40;2.92;;;2.63;;
65463;SDS011;52063;45.110;9.870;2024-01-06T13:30:05;2.70;;;2.50;;
65463;SDS011;52063;45.110;9.870;2024-01-06T13:32:31;2.65;;;2.45;;
65463;SDS011;52063;45.110;9.870;2024-01-06T13:34:57;2.60;;;2.38;;
65463;SDS011;52063;45.110;9.870;2024-01-06T13:37:30;2.60;;;2.40;;
65463;SDS011;52063;45.110;9.870;2024-01-06T13:39:56;2.47;;;2.28;;
65463;SDS011;52063;45.110;9.870;2024-01-06T13:42:22;2.63;;;2.43;;
65463;SDS011;52063;45.110;9.870;2024-01-06T13:44:47;2.92;;;2.30;;
65463;SDS011;52063;45.110;9.870;2024-01-06T13:47:16;2.70;;;2.50;;
65463;SDS011;52063;45.110;9.870;2024-01-06T13:49:41;2.60;;;2.40;;
65463;SDS011;52063;45.110;9.870;2024-01-06T13:52:07;2.70;;;2.50;;
65463;SDS011;52063;45.110;9.870;2024-01-06T13:54:35;3.55;;;2.42;;
65463;SDS011;52063;45.110;9.870;2024-01-06T13:57:01;2.67;;;2.47;;
65463;SDS011;52063;45.110;9.870;2024-01-06T13:59:26;2.53;;;2.33;;
65463;SDS011;52063;45.110;9.870;2024-01-06T14:01:52;2.53;;;2.33;;
65463;SDS011;52063;45.110;9.870;2024-01-06T14:04:18;2.88;;;2.67;;
65463;SDS011;52063;45.110;9.870;2024-01-06T14:06:44;2.80;;;2.50;;
65463;SDS011;52063;45.110;9.870;2024-01-06T14:09:12;3.43;;;2.20;;
65463;SDS011;52063;45.110;9.870;2024-01-06T14:11:38;2.55;;;2.33;;
65463;SDS011;52063;45.110;9.870;2024-01-06T14:14:04;2.65;;;2.40;;
65463;SDS011;52063;45.110;9.870;2024-01-06T14:16:30;2.43;;;2.23;;
65463;SDS011;52063;45.110;9.870;2024-01-06T14:18:55;3.25;;;2.15;;
65463;SDS011;52063;45.110;9.870;2024-01-06T14:21:21;2.40;;;2.20;;
65463;SDS011;52063;45.110;9.870;2024-01-06T14:23:47;2.60;;;2.40;;
65463;SDS011;52063;45.110;9.870;2024-01-06T14:26:15;2.57;;;2.13;;
65463;SDS011;52063;45.110;9.870;2024-01-06T14:28:43;3.10;;;2.50;;
65463;SDS011;52063;45.110;9.870;2024-01-06T14:31:08;4.67;;;2.37;;
65463;SDS011;52063;45.110;9.870;2024-01-06T14:33:35;2.50;;;2.30;;
65463;SDS011;52063;45.110;9.870;2024-01-06T14:36:01;3.03;;;2.80;;
65463;SDS011;52063;45.110;9.870;2024-01-06T14:38:30;2.80;;;2.60;;
65463;SDS011;52063;45.110;9.870;2024-01-06T14:40:55;3.17;;;2.87;;
65463;SDS011;52063;45.110;9.870;2024-01-06T14:43:22;2.38;;;2.17;;
65463;SDS011;52063;45.110;9.870;2024-01-06T14:45:47;2.92;;;2.60;;
65463;SDS011;52063;45.110;9.870;2024-01-06T14:48:13;2.40;;;2.20;;
65463;SDS011;52063;45.110;9.870;2024-01-06T14:50:41;2.63;;;2.43;;